Time;durP1;ratioP1;P1;durP2;ratioP2;P2;SDS_P1;SDS_P2;PMS_P1;PMS_P2;Temp;Humidity;BMP_temperature;BMP_pressure;BME280_temperature;BME280_humidity;BME280_pressure;Samples;Min_cycle;Max_cycle;Signal;HPM_P1;HPM_P2
2022/07/06 00:01:30;;;;;;;57.97;49.08;;;23.60;56.20;;;;;;5032348;27;89938;-50
2022/07/06 00:03:56;;;;;;;57.95;49.17;;;23.50;56.20;;;;;;5016587;27;90747;-52
2022/07/06 00:06:23;;;;;;;57.35;49.08;;;23.50;56.30;;;;;;5031399;27;91062;-50
2022/07/06 00:08:48;;;;;;;58.30;49.38;;;23.50;56.30;;;;;;5022328;27;90295;-50
2022/07/06 00:11:14;;;;;;;57.85;49.38;;;23.50;56.30;;;;;;5022083;27;91094;-50
2022/07/06 00:13:40;;;;;;;58.05;49.25;;;23.50;56.30;;;;;;5018935;27;90439;-52
2022/07/06 00:16:06;;;;;;;57.22;49.10;;;23.50;56.20;;;;;;5022582;27;90870;-47
2022/07/06 00:18:31;;;;;;;57.70;49.33;;;23.50;56.30;;;;;;5029560;27;92186;-48
2022/07/06 00:20:57;;;;;;;58.47;49.25;;;23.50;56.30;;;;;;5033541;27;90221;-50
2022/07/06 00:23:23;;;;;;;57.97;49.45;;;23.50;56.80;;;;;;5027698;27;91764;-48
2022/07/06 00:25:49;;;;;;;58.47;49.33;;;23.40;56.40;;;;;;5027137;27;90305;-49
2022/07/06 00:28:15;;;;;;;57.35;48.97;;;23.40;56.40;;;;;;5018160;27;89563;-50
2022/07/06 00:30:40;;;;;;;57.60;49.25;;;23.40;56.30;;;;;;5032557;27;90242;-51
2022/07/06 00:33:06;;;;;;;57.90;49.25;;;23.40;56.30;;;;;;5027905;27;91032;-52
2022/07/06 00:35:32;;;;;;;57.42;49.25;;;23.40;56.30;;;;;;5023329;27;91186;-51
2022/07/06 00:37:58;;;;;;;57.42;49.22;;;23.40;56.40;;;;;;5029253;27;90982;-49
2022/07/06 00:40:24;;;;;;;57.22;48.95;;;23.40;56.40;;;;;;5030808;27;89827;-48
2022/07/06 00:42:50;;;;;;;58.30;49.47;;;23.30;56.50;;;;;;5029259;27;89782;-50
2022/07/06 00:45:17;;;;;;;59.17;49.25;;;23.30;56.40;;;;;;5021680;27;93806;-49
2022/07/06 00:47:44;;;;;;;57.85;49.25;;;23.30;56.50;;;;;;5018242;27;90552;-53
2022/07/06 00:50:14;;;;;;;57.25;49.42;;;23.30;56.50;;;;;;5027093;27;91484;-50
2022/07/06 00:52:45;;;;;;;56.55;49.00;;;23.30;56.50;;;;;;5033273;27;88830;-53
2022/07/06 00:55:13;;;;;;;57.35;49.15;;;23.30;56.60;;;;;;5020050;27;92423;-49
2022/07/06 00:57:40;;;;;;;57.08;49.17;;;23.20;56.50;;;;;;5029490;27;91793;-52
2022/07/06 01:00:08;;;;;;;57.42;49.45;;;23.20;56.50;;;;;;5026646;27;92053;-50
2022/07/06 01:02:35;;;;;;;57.45;49.05;;;23.20;56.60;;;;;;5032953;27;90470;-49
2022/07/06 01:05:03;;;;;;;57.83;49.42;;;23.20;56.60;;;;;;5022642;27;90354;-51
2022/07/06 01:07:29;;;;;;;57.95;49.13;;;23.20;56.60;;;;;;5027606;27;92640;-52
2022/07/06 01:09:55;;;;;;;57.25;49.08;;;23.20;56.60;;;;;;5007926;27;90116;-51
2022/07/06 01:12:21;;;;;;;57.58;49.17;;;23.20;56.60;;;;;;5026655;27;89892;-51
2022/07/06 01:14:48;;;;;;;57.28;49.38;;;23.10;56.60;;;;;;5031601;27;90578;-52
2022/07/06 01:17:14;;;;;;;58.15;49.47;;;23.10;56.60;;;;;;5026483;27;90009;-50
2022/07/06 01:19:40;;;;;;;57.22;49.33;;;23.10;56.60;;;;;;5025931;27;90029;-50
2022/07/06 01:22:06;;;;;;;57.47;49.13;;;23.10;56.60;;;;;;5027744;27;89547;-48
2022/07/06 01:24:34;;;;;;;57.45;49.08;;;23.10;56.60;;;;;;5023188;27;90691;-51
2022/07/06 01:27:00;;;;;;;57.17;49.05;;;23.10;56.70;;;;;;5026157;27;91418;-50
2022/07/06 01:29:26;;;;;;;56.72;49.15;;;23.10;56.70;;;;;;5024349;27;91044;-54
2022/07/06 01:31:52;;;;;;;58.58;49.03;;;23.10;56.70;;;;;;5023155;27;89568;-53
2022/07/06 01:34:18;;;;;;;56.70;48.97;;;23.00;56.80;;;;;;5014440;27;89979;-52
2022/07/06 01:36:44;;;;;;;57.15;49.15;;;23.00;56.70;;;;;;5021384;27;90076;-53
2022/07/06 01:39:10;;;;;;;57.15;49.20;;;23.00;56.80;;;;;;5024387;27;91469;-53
2022/07/06 01:41:36;;;;;;;56.58;48.70;;;23.00;56.80;;;;;;5031162;27;89140;-49
2022/07/06 01:44:03;;;;;;;56.67;48.97;;;23.00;56.80;;;;;;5022447;27;90854;-54
2022/07/06 01:46:28;;;;;;;56.80;49.10;;;23.00;56.80;;;;;;5031435;27;91873;-54
2022/07/06 01:48:54;;;;;;;56.70;49.05;;;23.00;56.80;;;;;;5024704;27;91315;-51
2022/07/06 01:51:20;;;;;;;56.97;49.15;;;23.00;56.80;;;;;;5012023;27;93090;-53
2022/07/06 01:53:46;;;;;;;56.92;49.17;;;23.00;56.80;;;;;;5031294;27;90461;-53
2022/07/06 01:56:12;;;;;;;56.65;48.90;;;23.00;56.70;;;;;;5019826;27;91026;-52
2022/07/06 01:58:39;;;;;;;56.65;48.67;;;23.00;56.80;;;;;;5022708;27;89800;-50
2022/07/06 02:01:12;;;;;;;57.20;49.17;;;22.90;56.70;;;;;;5014966;27;89954;-48
2022/07/06 02:03:38;;;;;;;56.20;48.78;;;22.90;56.80;;;;;;5024906;27;90434;-54
2022/07/06 02:06:05;;;;;;;56.85;49.15;;;22.90;56.80;;;;;;5030002;27;90051;-51
2022/07/06 02:08:31;;;;;;;57.05;49.15;;;22.90;56.80;;;;;;5029763;27;89990;-51
2022/07/06 02:10:57;;;;;;;57.60;49.38;;;22.90;56.80;;;;;;5030332;27;89814;-49
2022/07/06 02:13:23;;;;;;;56.55;49.05;;;22.90;56.80;;;;;;5022801;27;91143;-51
2022/07/06 02:15:48;;;;;;;56.80;49.13;;;22.90;56.80;;;;;;5025760;27;91465;-49
2022/07/06 02:18:14;;;;;;;57.20;49.38;;;22.90;56.80;;;;;;5033170;27;89639;-51
2022/07/06 02:20:40;;;;;;;57.00;48.95;;;22.90;56.80;;;;;;5024118;27;90285;-52
2022/07/06 02:23:05;;;;;;;56.55;49.03;;;22.90;56.80;;;;;;5029023;27;89720;-49
2022/07/06 02:25:31;;;;;;;56.50;48.72;;;22.90;56.80;;;;;;5021760;27;90046;-53
2022/07/06 02:27:57;;;;;;;57.90;48.95;;;22.90;56.70;;;;;;5029717;27;90003;-49
2022/07/06 02:30:22;;;;;;;56.67;48.80;;;22.90;56.70;;;;;;5025055;27;89622;-47
2022/07/06 02:32:48;;;;;;;56.65;49.08;;;22.90;56.80;;;;;;5022409;27;90009;-52
2022/07/06 02:35:14;;;;;;;57.22;49.03;;;22.90;56.80;;;;;;5022616;27;90086;-52
2022/07/06 02:37:39;;;;;;;56.65;49.03;;;22.90;56.70;;;;;;5032129;27;91209;-53
2022/07/06 02:40:06;;;;;;;56.75;48.92;;;22.90;56.80;;;;;;5024726;27;89940;-55
2022/07/06 02:42:31;;;;;;;57.10;49.05;;;22.90;56.80;;;;;;5030918;27;89817;-51
2022/07/06 02:44:57;;;;;;;56.67;48.92;;;22.80;56.70;;;;;;5015831;27;89995;-52
2022/07/06 02:47:23;;;;;;;56.85;49.17;;;22.80;56.70;;;;;;5027624;27;90023;-54
2022/07/06 02:49:48;;;;;;;56.72;49.15;;;22.80;56.70;;;;;;5011017;27;89701;-54
2022/07/06 02:52:14;;;;;;;56.90;48.78;;;22.80;56.70;;;;;;5029144;27;89863;-54
2022/07/06 02:54:40;;;;;;;56.67;49.15;;;22.80;56.70;;;;;;5028754;27;90298;-52
2022/07/06 02:57:05;;;;;;;56.65;49.20;;;22.80;56.70;;;;;;5020401;27;90122;-55
2022/07/06 02:59:31;;;;;;;57.30;49.13;;;22.80;56.70;;;;;;5029476;27;89732;-54
2022/07/06 03:01:56;;;;;;;56.20;48.95;;;22.80;56.80;;;;;;5024845;27;92641;-54
2022/07/06 03:04:22;;;;;;;56.00;48.85;;;22.80;56.80;;;;;;5026795;27;90390;-53
2022/07/06 03:06:48;;;;;;;56.88;48.85;;;22.80;56.70;;;;;;5026703;27;90422;-53
2022/07/06 03:09:13;;;;;;;56.75;48.80;;;22.70;56.70;;;;;;5032264;27;90415;-53
2022/07/06 03:11:39;;;;;;;57.05;48.95;;;22.80;56.80;;;;;;5034683;27;90013;-51
2022/07/06 03:14:05;;;;;;;56.50;48.95;;;22.70;56.70;;;;;;5031629;27;90378;-53
2022/07/06 03:16:31;;;;;;;56.85;48.83;;;22.80;56.70;;;;;;5025558;27;91560;-51
2022/07/06 03:18:57;;;;;;;56.90;48.88;;;22.70;56.70;;;;;;5036336;27;89241;-49
2022/07/06 03:21:26;;;;;;;57.08;48.85;;;22.70;56.80;;;;;;5030394;27;91709;-50
2022/07/06 03:23:51;;;;;;;56.00;48.72;;;22.70;56.80;;;;;;5033272;27;92329;-54
2022/07/06 03:26:17;;;;;;;57.63;48.85;;;22.70;56.80;;;;;;5027728;27;94088;-53
2022/07/06 03:28:43;;;;;;;56.53;49.05;;;22.70;56.80;;;;;;5027377;27;90892;-51
2022/07/06 03:31:08;;;;;;;56.72;48.85;;;22.70;56.80;;;;;;5024262;27;90240;-49
2022/07/06 03:33:34;;;;;;;56.55;48.85;;;22.70;56.80;;;;;;5034969;27;90644;-52
2022/07/06 03:36:00;;;;;;;56.60;48.92;;;22.60;56.80;;;;;;5029650;27;93930;-50
2022/07/06 03:38:25;;;;;;;56.90;49.15;;;22.60;56.80;;;;;;5034670;27;89758;-50
2022/07/06 03:40:51;;;;;;;56.72;48.97;;;22.60;56.90;;;;;;5020410;27;90853;-55
2022/07/06 03:43:17;;;;;;;57.03;49.10;;;22.60;56.80;;;;;;5031301;27;90671;-52
2022/07/06 03:45:43;;;;;;;59.40;48.88;;;22.60;56.90;;;;;;5029440;27;89711;-51
2022/07/06 03:48:09;;;;;;;57.60;49.30;;;22.60;56.80;;;;;;5029829;27;89817;-53
2022/07/06 03:50:35;;;;;;;56.95;48.90;;;22.60;56.90;;;;;;5024613;27;92980;-48
2022/07/06 03:53:01;;;;;;;57.30;48.95;;;22.60;56.90;;;;;;5034044;27;90952;-51
2022/07/06 03:55:27;;;;;;;58.15;48.83;;;22.60;56.90;;;;;;5023475;27;91278;-49
2022/07/06 03:57:52;;;;;;;56.53;49.08;;;22.50;56.90;;;;;;5026737;27;89890;-53
2022/07/06 04:00:18;;;;;;;57.72;48.85;;;22.60;56.90;;;;;;5030567;27;89475;-50
2022/07/06 04:02:44;;;;;;;57.80;48.70;;;22.60;56.90;;;;;;5026668;27;90180;-49
2022/07/06 04:05:09;;;;;;;67.18;49.13;;;22.50;56.80;;;;;;5033868;27;89917;-55
2022/07/06 04:07:35;;;;;;;63.72;49.13;;;22.50;56.90;;;;;;5033510;27;88985;-51
2022/07/06 04:10:00;;;;;;;58.47;49.00;;;22.50;56.90;;;;;;5036579;27;90123;-53
2022/07/06 04:12:26;;;;;;;59.42;48.95;;;22.50;56.90;;;;;;5029206;27;89919;-54
2022/07/06 04:14:52;;;;;;;56.20;48.80;;;22.50;56.90;;;;;;5024520;27;90865;-49
2022/07/06 04:20:02;;;;;;;58.75;48.97;;;22.50;56.80;;;;;;5028010;27;90055;-53
2022/07/06 04:22:28;;;;;;;56.28;49.05;;;22.50;56.90;;;;;;5021804;27;89204;-54
2022/07/06 04:24:53;;;;;;;56.65;48.90;;;22.50;56.90;;;;;;5027492;27;89536;-49
2022/07/06 04:27:19;;;;;;;56.83;48.90;;;22.50;56.80;;;;;;5029362;27;91868;-54
2022/07/06 04:29:44;;;;;;;58.40;48.70;;;22.50;56.90;;;;;;5033756;27;90378;-51
2022/07/06 04:32:10;;;;;;;56.10;48.83;;;22.50;56.90;;;;;;5018576;27;89807;-53
2022/07/06 04:34:36;;;;;;;57.60;48.65;;;22.50;56.80;;;;;;5030035;27;89582;-50
2022/07/06 04:37:01;;;;;;;57.28;48.95;;;22.50;56.90;;;;;;5023892;27;89812;-53
2022/07/06 04:39:27;;;;;;;56.75;48.97;;;22.50;56.90;;;;;;5033450;27;91315;-52
2022/07/06 04:41:53;;;;;;;59.00;48.88;;;22.50;57.00;;;;;;5023761;27;91652;-51
2022/07/06 04:44:18;;;;;;;57.88;49.15;;;22.50;57.00;;;;;;5031621;27;90381;-55
2022/07/06 04:46:44;;;;;;;57.03;48.70;;;22.50;57.00;;;;;;5002663;27;89799;-52
2022/07/06 04:49:10;;;;;;;58.03;49.15;;;22.40;56.90;;;;;;5026212;27;89921;-55
2022/07/06 04:51:35;;;;;;;57.97;49.00;;;22.50;56.90;;;;;;5000289;27;91335;-50
2022/07/06 04:54:01;;;;;;;57.80;49.17;;;22.50;56.90;;;;;;4997585;27;90395;-54
2022/07/06 04:56:27;;;;;;;58.30;49.05;;;22.50;56.90;;;;;;5024025;27;89074;-52
2022/07/06 04:58:52;;;;;;;57.72;49.20;;;22.50;56.90;;;;;;5026902;27;91378;-55
2022/07/06 05:01:18;;;;;;;57.65;49.22;;;22.50;56.90;;;;;;5030344;27;90000;-53
2022/07/06 05:03:43;;;;;;;56.50;49.15;;;22.50;57.00;;;;;;5032555;27;90778;-50
2022/07/06 05:06:09;;;;;;;56.53;49.10;;;22.50;57.00;;;;;;5034988;27;89508;-54
2022/07/06 05:08:35;;;;;;;56.92;49.13;;;22.50;57.00;;;;;;5023912;27;90007;-50
2022/07/06 05:11:00;;;;;;;57.28;49.15;;;22.50;56.90;;;;;;5028046;27;89798;-47
2022/07/06 05:13:26;;;;;;;57.47;48.85;;;22.50;56.90;;;;;;5021018;27;90217;-52
2022/07/06 05:15:51;;;;;;;58.25;48.85;;;22.50;57.50;;;;;;5025459;27;90145;-54
2022/07/06 05:18:17;;;;;;;58.17;49.08;;;22.50;57.10;;;;;;5019271;27;91532;-52
2022/07/06 05:20:44;;;;;;;57.78;49.28;;;22.50;56.90;;;;;;5030272;27;90345;-52
2022/07/06 05:23:09;;;;;;;57.40;49.40;;;22.50;57.00;;;;;;5018163;27;89567;-54
2022/07/06 05:25:36;;;;;;;56.78;49.00;;;22.60;57.00;;;;;;5026510;27;90306;-54
2022/07/06 05:28:02;;;;;;;58.28;49.50;;;22.60;57.00;;;;;;5014899;27;93584;-51
2022/07/06 05:30:28;;;;;;;58.20;49.13;;;22.60;57.00;;;;;;5031008;27;90420;-51
2022/07/06 05:32:54;;;;;;;56.38;48.88;;;22.60;56.80;;;;;;5023133;27;91751;-54
2022/07/06 05:35:19;;;;;;;58.38;49.38;;;22.60;56.90;;;;;;5031348;27;92174;-52
2022/07/06 05:37:45;;;;;;;56.65;49.17;;;22.60;56.70;;;;;;5027227;27;90146;-52
2022/07/06 05:40:11;;;;;;;60.25;49.42;;;22.70;56.60;;;;;;5030283;27;89896;-52
2022/07/06 05:42:37;;;;;;;57.63;49.30;;;22.70;56.50;;;;;;5024624;27;90041;-52
2022/07/06 05:45:04;;;;;;;58.13;49.13;;;22.70;56.50;;;;;;5026402;27;88986;-55
2022/07/06 05:50:14;;;;;;;57.50;49.30;;;22.70;56.40;;;;;;5028652;27;90123;-51
2022/07/06 05:52:45;;;;;;;59.05;49.33;;;22.70;56.20;;;;;;5024629;27;91008;-53
2022/07/06 05:55:12;;;;;;;58.78;49.47;;;22.80;56.70;;;;;;5026728;27;89870;-54
2022/07/06 05:57:40;;;;;;;56.75;48.95;;;22.80;56.20;;;;;;5024517;27;90290;-50
2022/07/06 06:00:07;;;;;;;59.10;49.05;;;22.80;56.00;;;;;;5029060;27;89901;-55
2022/07/06 06:02:40;;;;;;;58.08;49.10;;;22.80;56.00;;;;;;5017528;27;92869;-50
2022/07/06 06:05:07;;;;;;;56.97;49.17;;;22.90;56.00;;;;;;5027549;27;90410;-51
2022/07/06 06:07:37;;;;;;;58.42;49.10;;;22.90;55.90;;;;;;5019884;27;90677;-51
2022/07/06 06:10:11;;;;;;;57.22;49.10;;;22.90;55.80;;;;;;5022734;27;89918;-53
2022/07/06 06:12:37;;;;;;;58.42;49.22;;;22.90;55.80;;;;;;5024728;27;89769;-49
2022/07/06 06:15:04;;;;;;;57.30;49.13;;;22.90;55.80;;;;;;5015640;27;89999;-49
2022/07/06 06:17:30;;;;;;;58.30;49.25;;;22.90;55.70;;;;;;5022994;27;91100;-50
2022/07/06 06:19:56;;;;;;;57.45;49.13;;;23.00;55.70;;;;;;5019336;27;90116;-50
2022/07/06 06:22:22;;;;;;;57.38;49.20;;;23.00;55.70;;;;;;5028338;27;90288;-51
2022/07/06 06:24:47;;;;;;;57.88;49.35;;;23.00;55.60;;;;;;5016438;27;89728;-50
2022/07/06 06:27:13;;;;;;;57.88;49.10;;;23.00;55.60;;;;;;5025899;27;96463;-49
2022/07/06 06:29:39;;;;;;;59.08;49.10;;;23.10;55.50;;;;;;5026499;27;90293;-51
2022/07/06 06:32:05;;;;;;;58.05;49.35;;;23.10;55.50;;;;;;5028403;27;90535;-52
2022/07/06 06:34:32;;;;;;;57.80;49.35;;;23.10;55.40;;;;;;5027057;27;89321;-51
2022/07/06 06:36:57;;;;;;;57.75;49.28;;;23.10;55.40;;;;;;5032641;27;89978;-47
2022/07/06 06:39:23;;;;;;;57.17;49.20;;;23.10;55.40;;;;;;5022400;27;90023;-53
2022/07/06 06:41:49;;;;;;;57.67;49.28;;;23.10;55.40;;;;;;5025843;27;91009;-50
2022/07/06 06:44:15;;;;;;;57.35;49.15;;;23.10;55.30;;;;;;5026553;27;90206;-49
2022/07/06 06:46:41;;;;;;;57.88;49.50;;;23.10;55.30;;;;;;5029538;27;91633;-50
2022/07/06 06:49:07;;;;;;;59.25;49.50;;;23.10;55.30;;;;;;5026266;27;90158;-53
2022/07/06 06:51:33;;;;;;;57.42;49.17;;;23.10;55.20;;;;;;5029864;27;90290;-51
2022/07/06 06:53:59;;;;;;;57.88;49.10;;;23.20;55.30;;;;;;5012986;27;90320;-52
2022/07/06 06:56:24;;;;;;;60.15;49.45;;;23.20;55.20;;;;;;5032234;27;89782;-50
2022/07/06 06:58:50;;;;;;;57.50;49.25;;;23.20;55.10;;;;;;5025676;27;91299;-50
2022/07/06 07:01:16;;;;;;;57.65;49.22;;;23.20;55.20;;;;;;5036595;27;89524;-50
2022/07/06 07:03:41;;;;;;;58.20;49.35;;;23.20;55.20;;;;;;5029049;27;89522;-52
2022/07/06 07:06:07;;;;;;;57.72;49.38;;;23.20;55.10;;;;;;5030881;27;94681;-52
2022/07/06 07:08:33;;;;;;;58.10;49.28;;;23.20;55.20;;;;;;5030949;27;90795;-47
2022/07/06 07:10:58;;;;;;;57.83;49.33;;;23.20;55.20;;;;;;5024107;27;89568;-51
2022/07/06 07:13:24;;;;;;;57.85;49.22;;;23.20;55.10;;;;;;5022465;27;89562;-50
2022/07/06 07:15:50;;;;;;;58.05;49.58;;;23.30;55.10;;;;;;5015614;27;90237;-51
2022/07/06 07:18:16;;;;;;;58.58;49.40;;;23.30;55.00;;;;;;5028854;27;90042;-48
2022/07/06 07:20:41;;;;;;;57.58;49.47;;;23.30;55.00;;;;;;5012504;27;89828;-50
2022/07/06 07:23:07;;;;;;;58.30;49.70;;;23.30;54.90;;;;;;5027172;27;89414;-52
2022/07/06 07:25:33;;;;;;;58.60;49.70;;;23.30;55.00;;;;;;5025435;27;89708;-51
2022/07/06 07:27:58;;;;;;;59.53;49.63;;;23.30;54.90;;;;;;5034687;27;89750;-49
2022/07/06 07:30:24;;;;;;;58.85;49.35;;;23.40;55.10;;;;;;5025891;27;92212;-50
2022/07/06 07:32:50;;;;;;;58.03;49.33;;;23.30;55.00;;;;;;5033592;27;90554;-51
2022/07/06 07:35:15;;;;;;;58.60;49.33;;;23.30;55.00;;;;;;5026472;27;90007;-50
2022/07/06 07:37:41;;;;;;;58.55;49.67;;;23.30;55.00;;;;;;5021668;27;89912;-52
2022/07/06 07:40:07;;;;;;;58.50;49.75;;;23.40;55.00;;;;;;5032691;27;91680;-54
2022/07/06 07:42:33;;;;;;;59.25;49.75;;;23.40;55.00;;;;;;5031852;27;89931;-48
2022/07/06 07:44:58;;;;;;;59.08;49.70;;;23.40;54.90;;;;;;5023598;27;90137;-49
2022/07/06 07:47:24;;;;;;;57.60;49.47;;;23.40;54.90;;;;;;5033488;27;90123;-47
2022/07/06 07:49:50;;;;;;;58.53;49.63;;;23.40;54.80;;;;;;5025821;27;90289;-51
2022/07/06 07:52:16;;;;;;;58.47;49.63;;;23.40;54.90;;;;;;5035267;27;90323;-49
2022/07/06 07:54:41;;;;;;;57.80;49.38;;;23.40;54.80;;;;;;5022252;27;90737;-51
2022/07/06 07:57:07;;;;;;;57.88;49.35;;;23.40;54.90;;;;;;5030415;27;89955;-53
2022/07/06 07:59:32;;;;;;;59.08;49.65;;;23.40;54.80;;;;;;5025415;27;91621;-52
2022/07/06 08:01:58;;;;;;;59.47;49.70;;;23.40;54.80;;;;;;5010158;27;90248;-49
2022/07/06 08:04:24;;;;;;;59.67;49.95;;;23.40;54.90;;;;;;5029307;27;90061;-49
2022/07/06 08:06:50;;;;;;;58.63;49.58;;;23.40;55.00;;;;;;5018953;27;94053;-50
2022/07/06 08:09:17;;;;;;;58.85;49.95;;;23.40;54.80;;;;;;5021384;27;90232;-50
2022/07/06 08:11:43;;;;;;;58.80;49.55;;;23.30;54.80;;;;;;5028306;27;89000;-54
2022/07/06 08:14:09;;;;;;;59.08;49.95;;;23.40;54.80;;;;;;5005759;27;90620;-54
2022/07/06 08:16:35;;;;;;;58.88;49.67;;;23.40;54.90;;;;;;5019572;27;89929;-54
2022/07/06 08:19:01;;;;;;;58.33;49.60;;;23.40;54.90;;;;;;5034945;27;90866;-53
2022/07/06 08:21:26;;;;;;;59.22;49.78;;;23.40;54.80;;;;;;5027187;27;90097;-51
2022/07/06 08:23:54;;;;;;;58.45;49.58;;;23.40;54.70;;;;;;5028091;27;89802;-53
2022/07/06 08:26:20;;;;;;;58.40;49.78;;;23.50;54.70;;;;;;5021258;27;91169;-49
2022/07/06 08:28:46;;;;;;;62.80;50.05;;;23.50;54.70;;;;;;5031081;27;90078;-51
2022/07/06 08:31:12;;;;;;;59.17;49.95;;;23.50;54.70;;;;;;5025096;27;90209;-49
2022/07/06 08:33:38;;;;;;;59.33;49.83;;;23.50;54.70;;;;;;5031673;27;89578;-53
2022/07/06 08:36:04;;;;;;;59.75;50.25;;;23.50;54.80;;;;;;5022118;27;90038;-53
2022/07/06 08:38:30;;;;;;;58.75;49.88;;;23.60;54.60;;;;;;5032916;27;90531;-51
2022/07/06 08:40:57;;;;;;;59.70;50.05;;;23.60;54.60;;;;;;5025686;27;91814;-52
2022/07/06 08:43:23;;;;;;;60.70;50.13;;;23.60;54.40;;;;;;5029892;27;90801;-52
2022/07/06 08:45:52;;;;;;;59.35;50.08;;;23.60;54.40;;;;;;5023262;27;91368;-51
2022/07/06 08:48:19;;;;;;;60.97;50.08;;;23.70;54.40;;;;;;5030034;27;89942;-52
2022/07/06 08:50:45;;;;;;;59.60;50.47;;;23.70;54.40;;;;;;5024913;27;90058;-53
2022/07/06 08:53:10;;;;;;;59.45;50.05;;;23.70;54.30;;;;;;5028154;27;90319;-51
2022/07/06 08:55:36;;;;;;;59.65;50.35;;;23.70;54.30;;;;;;5011662;27;89728;-52
2022/07/06 08:58:04;;;;;;;59.53;50.25;;;23.70;54.20;;;;;;5031613;27;89989;-53
2022/07/06 09:00:32;;;;;;;60.00;50.53;;;23.70;54.20;;;;;;5029558;27;88511;-49
2022/07/06 09:03:00;;;;;;;59.60;50.15;;;23.70;54.20;;;;;;5012813;27;89900;-51
2022/07/06 09:05:26;;;;;;;59.45;50.03;;;23.70;54.20;;;;;;5022748;27;89810;-47
2022/07/06 09:07:53;;;;;;;61.35;50.20;;;23.70;54.10;;;;;;5025461;27;91001;-53
2022/07/06 09:10:21;;;;;;;60.42;50.40;;;23.80;54.20;;;;;;5033823;27;89860;-54
2022/07/06 09:12:47;;;;;;;59.25;49.85;;;23.80;54.30;;;;;;5025980;27;90213;-52
2022/07/06 09:15:13;;;;;;;59.80;50.28;;;23.80;54.30;;;;;;5024476;27;94015;-54
2022/07/06 09:17:40;;;;;;;59.08;50.08;;;23.80;54.30;;;;;;5024935;27;90119;-53
2022/07/06 09:20:08;;;;;;;59.22;49.88;;;23.80;54.40;;;;;;5022284;27;90717;-51
2022/07/06 09:22:35;;;;;;;59.92;50.08;;;23.80;54.30;;;;;;5028305;27;90655;-51
2022/07/06 09:25:12;;;;;;;59.20;50.10;;;23.80;54.30;;;;;;5030635;27;89640;-52
2022/07/06 09:27:54;;;;;;;59.53;50.28;;;23.90;54.30;;;;;;5012514;27;90717;-54
2022/07/06 09:30:22;;;;;;;60.17;50.50;;;23.90;54.40;;;;;;5032889;27;90228;-54
2022/07/06 09:32:50;;;;;;;59.72;50.13;;;23.90;54.30;;;;;;5026627;27;91961;-52
2022/07/06 09:35:32;;;;;;;59.42;50.20;;;23.90;54.30;;;;;;5032061;27;90969;-54
2022/07/06 09:38:13;;;;;;;60.05;50.38;;;24.00;54.40;;;;;;5028055;27;89994;-51
2022/07/06 09:40:45;;;;;;;60.95;50.53;;;24.00;54.20;;;;;;5032041;27;90297;-52
2022/07/06 09:43:22;;;;;;;59.55;50.28;;;24.00;54.20;;;;;;5025340;27;92079;-50
2022/07/06 09:45:52;;;;;;;59.47;50.22;;;24.00;54.20;;;;;;5024661;27;91067;-52
2022/07/06 09:48:23;;;;;;;59.85;50.28;;;24.00;54.20;;;;;;5024916;27;90037;-52
2022/07/06 09:50:55;;;;;;;60.78;50.13;;;24.00;54.20;;;;;;5031705;27;90455;-49
2022/07/06 09:53:28;;;;;;;59.28;49.97;;;24.00;54.20;;;;;;5023242;27;90472;-52
2022/07/06 09:55:56;;;;;;;59.45;50.25;;;24.10;54.20;;;;;;5023384;27;89779;-53
2022/07/06 09:58:22;;;;;;;60.15;50.25;;;24.10;54.10;;;;;;5020436;27;90224;-53
2022/07/06 10:00:49;;;;;;;59.88;50.55;;;24.10;54.10;;;;;;5028727;27;90982;-52
2022/07/06 10:03:16;;;;;;;60.00;50.25;;;24.10;54.10;;;;;;5026012;27;90285;-54
2022/07/06 10:05:46;;;;;;;60.53;50.35;;;24.10;54.10;;;;;;5014102;27;94974;-54
2022/07/06 10:08:15;;;;;;;59.63;50.20;;;24.10;54.10;;;;;;5024778;27;90013;-54
2022/07/06 10:10:43;;;;;;;61.35;50.75;;;24.10;54.10;;;;;;5028031;27;89776;-51
2022/07/06 10:13:09;;;;;;;60.95;50.40;;;24.10;54.10;;;;;;5020356;27;90326;-52
2022/07/06 10:15:38;;;;;;;59.78;50.10;;;24.10;54.10;;;;;;5021295;27;91011;-55
2022/07/06 10:18:06;;;;;;;59.42;50.33;;;24.20;54.10;;;;;;5026585;27;89483;-53
2022/07/06 10:20:36;;;;;;;59.60;50.50;;;24.20;54.10;;;;;;5031740;27;90326;-52
2022/07/06 10:23:03;;;;;;;60.20;50.22;;;24.20;54.10;;;;;;5027216;27;92156;-50
2022/07/06 10:25:29;;;;;;;59.70;50.30;;;24.20;54.70;;;;;;5038320;27;91297;-52
2022/07/06 10:27:55;;;;;;;59.88;50.33;;;24.20;54.20;;;;;;5022004;27;90746;-54
2022/07/06 10:30:22;;;;;;;61.13;50.33;;;24.20;54.10;;;;;;5018221;27;89913;-50
2022/07/06 10:32:50;;;;;;;60.85;50.45;;;24.20;54.10;;;;;;5026687;27;89576;-54
2022/07/06 10:35:18;;;;;;;60.03;50.38;;;24.20;54.10;;;;;;5024139;27;90734;-53
2022/07/06 10:37:45;;;;;;;59.83;50.20;;;24.20;54.10;;;;;;5033916;27;89970;-50
2022/07/06 10:43:02;;;;;;;61.60;50.42;;;24.20;54.10;;;;;;5014040;27;90054;-50
2022/07/06 10:45:28;;;;;;;59.67;50.28;;;24.20;54.10;;;;;;5030120;27;90388;-51
2022/07/06 10:48:11;;;;;;;59.38;50.22;;;24.30;54.10;;;;;;5028984;27;90864;-51
2022/07/06 10:50:45;;;;;;;59.95;50.53;;;24.30;54.10;;;;;;5025155;27;92971;-49
2022/07/06 10:53:16;;;;;;;60.22;50.35;;;24.30;54.10;;;;;;5022023;27;91259;-50
2022/07/06 10:55:47;;;;;;;60.10;50.33;;;24.30;54.00;;;;;;5023237;27;90106;-51
2022/07/06 10:58:13;;;;;;;;;;;24.30;54.00;;;;;;5024927;27;90674;-50
2022/07/06 11:00:51;;;;;;;59.72;50.15;;;24.40;54.10;;;;;;5038739;27;89888;-48
2022/07/06 11:03:47;;;;;;;60.03;50.53;;;24.30;54.00;;;;;;5016978;27;90642;-53
2022/07/06 11:06:18;;;;;;;60.88;50.40;;;24.30;54.10;;;;;;5026452;27;88789;-49
2022/07/06 11:08:46;;;;;;;61.15;50.40;;;24.40;54.00;;;;;;5022502;27;90786;-52
2022/07/06 11:11:19;;;;;;;59.92;50.42;;;24.40;53.90;;;;;;5020328;27;94584;-52
2022/07/06 11:13:53;;;;;;;59.30;50.20;;;24.40;53.90;;;;;;5023006;27;92943;-52
2022/07/06 11:16:21;;;;;;;59.85;50.38;;;24.40;53.80;;;;;;5032802;27;92534;-50
2022/07/06 11:19:04;;;;;;;60.30;50.45;;;24.40;53.80;;;;;;5028549;27;90053;-51
2022/07/06 11:21:46;;;;;;;61.75;50.60;;;24.40;53.90;;;;;;5031385;27;89529;-53
2022/07/06 11:24:17;;;;;;;60.38;50.40;;;24.40;53.90;;;;;;5024234;27;90649;-51
2022/07/06 11:26:46;;;;;;;61.58;50.75;;;24.40;54.10;;;;;;5029962;27;89561;-54
2022/07/06 11:29:12;;;;;;;61.67;51.15;;;24.40;54.10;;;;;;5021914;27;90568;-52
2022/07/06 11:31:40;;;;;;;60.65;50.83;;;24.40;54.00;;;;;;5030483;27;88896;-51
2022/07/06 11:34:08;;;;;;;60.25;50.63;;;24.40;53.80;;;;;;5015747;27;89817;-53
2022/07/06 11:36:37;;;;;;;59.80;50.55;;;24.40;53.70;;;;;;5032806;27;90212;-49
2022/07/06 11:39:05;;;;;;;60.35;50.50;;;24.40;53.80;;;;;;5028158;27;91250;-50
2022/07/06 11:41:31;;;;;;;60.00;50.42;;;24.40;53.70;;;;;;5027397;27;89984;-51
2022/07/06 11:43:57;;;;;;;60.10;50.55;;;24.30;53.90;;;;;;5027014;27;90710;-50
2022/07/06 11:46:28;;;;;;;60.63;51.00;;;24.30;54.00;;;;;;5028860;27;90377;-51
2022/07/06 11:48:56;;;;;;;61.95;50.80;;;24.40;54.10;;;;;;5021670;27;89840;-51
2022/07/06 11:51:23;;;;;;;60.15;50.33;;;24.40;54.00;;;;;;5035060;27;90293;-53
2022/07/06 11:53:52;;;;;;;59.90;50.33;;;24.40;53.90;;;;;;5026390;27;89878;-51
2022/07/06 11:56:21;;;;;;;59.67;50.35;;;24.40;53.90;;;;;;5027964;27;90298;-51
2022/07/06 11:58:49;;;;;;;59.72;50.42;;;24.40;54.00;;;;;;5025170;27;90172;-53
2022/07/06 12:01:15;;;;;;;62.85;51.38;;;24.40;54.00;;;;;;5026335;27;89738;-54
2022/07/06 12:03:41;;;;;;;60.22;50.70;;;24.40;54.10;;;;;;5027759;27;90981;-52
2022/07/06 12:06:14;;;;;;;60.70;51.10;;;24.40;54.00;;;;;;5023100;27;90953;-53
2022/07/06 12:09:00;;;;;;;61.13;50.70;;;24.40;54.00;;;;;;5026174;27;89552;-54
2022/07/06 12:11:32;;;;;;;60.33;50.90;;;24.40;54.10;;;;;;5030973;27;89500;-49
2022/07/06 12:14:00;;;;;;;61.35;51.00;;;24.40;54.10;;;;;;5023824;27;90323;-51
2022/07/06 12:16:45;;;;;;;61.25;50.83;;;24.30;54.10;;;;;;5020323;27;90634;-51
2022/07/06 12:19:12;;;;;;;60.38;50.72;;;24.40;54.20;;;;;;5025736;27;89481;-52
2022/07/06 12:21:48;;;;;;;62.03;51.90;;;24.40;54.20;;;;;;5033520;27;89436;-53
2022/07/06 12:24:26;;;;;;;63.00;52.63;;;24.40;54.10;;;;;;5024621;27;90289;-48
2022/07/06 12:26:53;;;;;;;61.30;51.35;;;24.40;53.90;;;;;;5030870;27;90839;-48
2022/07/06 12:29:22;;;;;;;61.97;51.75;;;24.40;54.10;;;;;;5029617;27;90802;-51
2022/07/06 12:31:52;;;;;;;60.45;50.88;;;24.50;54.00;;;;;;5033901;27;90124;-51
2022/07/06 12:34:22;;;;;;;60.80;51.30;;;24.50;54.00;;;;;;5022225;27;90168;-50
2022/07/06 12:36:59;;;;;;;61.05;51.33;;;24.40;54.00;;;;;;5031329;27;89848;-53